Time;durP1;ratioP1;P1;durP2;ratioP2;P2;SDS_P1;SDS_P2;PMS_P1;PMS_P2;Temp;Humidity;BMP_temperature;BMP_pressure;BME280_temperature;BME280_humidity;BME280_pressure;Samples;Min_cycle;Max_cycle;Signal;HPM_P1;HPM_P2
2022/01/06 00:02:52;;;;;;;2.28;0.60;;;20.30;47.60;;;;;;6198293;28;20124;-72
2022/01/06 00:05:54;;;;;;;1.15;0.50;;;20.30;47.60;;;;;;6217432;28;20085;-72
2022/01/06 00:08:56;;;;;;;1.02;0.50;;;20.40;47.70;;;;;;6209260;28;20384;-72
2022/01/06 00:11:56;;;;;;;1.08;0.45;;;20.30;47.70;;;;;;6209190;28;20317;-72
2022/01/06 00:15:08;;;;;;;0.40;0.30;;;20.30;47.60;;;;;;6197177;28;20037;-72
2022/01/06 00:18:23;;;;;;;2.35;0.60;;;20.30;47.60;;;;;;6193316;28;20034;-72
2022/01/06 00:24:43;;;;;;;1.80;0.75;;;20.30;47.60;;;;;;6196644;28;20481;-73
2022/01/06 00:27:43;;;;;;;0.65;0.40;;;20.30;47.60;;;;;;6196697;28;20049;-72
2022/01/06 00:30:44;;;;;;;1.15;0.65;;;20.30;47.60;;;;;;6196514;28;20474;-72
2022/01/06 00:33:45;;;;;;;1.23;0.65;;;20.30;47.60;;;;;;6196160;28;20371;-72
2022/01/06 00:36:45;;;;;;;0.85;0.43;;;20.30;47.60;;;;;;6196401;28;20030;-72
2022/01/06 00:39:46;;;;;;;1.48;0.45;;;20.30;47.60;;;;;;6196376;28;20477;-73
2022/01/06 00:42:47;;;;;;;0.88;0.50;;;20.30;47.60;;;;;;6196602;28;20077;-72
2022/01/06 00:45:48;;;;;;;0.65;0.30;;;20.30;47.50;;;;;;6196405;28;20034;-72
2022/01/06 00:48:48;;;;;;;0.85;0.40;;;20.30;47.50;;;;;;6196093;28;20039;-72
2022/01/06 00:51:48;;;;;;;1.98;0.45;;;20.30;47.50;;;;;;6195934;28;20026;-72
2022/01/06 00:54:49;;;;;;;1.15;0.50;;;20.30;47.40;;;;;;6196633;28;20034;-72
2022/01/06 00:57:49;;;;;;;0.40;0.30;;;20.30;47.50;;;;;;6202666;28;20026;-72
2022/01/06 01:00:50;;;;;;;1.25;0.50;;;20.30;47.40;;;;;;6220499;28;20028;-72
2022/01/06 01:03:50;;;;;;;0.95;0.32;;;20.30;47.40;;;;;;6198993;28;20457;-72
2022/01/06 01:06:51;;;;;;;0.70;0.40;;;20.30;47.50;;;;;;6195840;28;20047;-72
2022/01/06 01:09:51;;;;;;;1.25;0.47;;;20.30;47.50;;;;;;6195645;28;20224;-73
2022/01/06 01:12:52;;;;;;;1.33;0.60;;;20.30;47.50;;;;;;6195815;28;20490;-72
2022/01/06 01:15:57;;;;;;;0.90;0.50;;;20.30;47.50;;;;;;6195885;28;20034;-72
2022/01/06 01:19:00;;;;;;;1.52;0.70;;;20.30;47.50;;;;;;6194685;28;20061;-72
2022/01/06 01:22:01;;;;;;;1.10;0.57;;;20.30;47.40;;;;;;6195264;28;20517;-72
2022/01/06 01:25:02;;;;;;;1.38;0.50;;;20.30;47.40;;;;;;6214236;28;20026;-72
2022/01/06 01:28:04;;;;;;;1.13;0.57;;;20.30;47.40;;;;;;6208983;28;20413;-72
2022/01/06 01:31:22;;;;;;;0.45;0.35;;;20.30;47.40;;;;;;6195512;28;20023;-73
2022/01/06 01:34:26;;;;;;;0.98;0.40;;;20.30;47.40;;;;;;6195460;28;20034;-72
2022/01/06 01:37:31;;;;;;;1.27;0.40;;;20.30;47.40;;;;;;6195532;28;20350;-72
2022/01/06 01:40:31;;;;;;;1.02;0.47;;;20.30;47.40;;;;;;6195502;28;20030;-72
2022/01/06 01:43:32;;;;;;;1.45;0.52;;;20.30;47.40;;;;;;6194754;28;20477;-72
2022/01/06 01:46:42;;;;;;;0.55;0.43;;;20.30;47.40;;;;;;6195543;28;20026;-72
2022/01/06 01:49:49;;;;;;;0.77;0.50;;;20.30;47.40;;;;;;6194969;28;20030;-72
2022/01/06 01:52:58;;;;;;;1.05;0.50;;;20.30;47.40;;;;;;6194505;28;20114;-72
2022/01/06 01:55:59;;;;;;;1.02;0.52;;;20.30;47.40;;;;;;6195076;28;20029;-72
2022/01/06 01:58:59;;;;;;;0.50;0.40;;;20.30;47.40;;;;;;6194804;28;20383;-72
2022/01/06 02:02:00;;;;;;;0.50;0.30;;;20.30;47.40;;;;;;6191515;28;20125;-72
2022/01/06 02:05:00;;;;;;;0.77;0.45;;;20.30;47.40;;;;;;6177086;28;20015;-72
2022/01/06 02:08:02;;;;;;;1.42;0.60;;;20.30;47.30;;;;;;6189670;28;20371;-72
2022/01/06 02:11:03;;;;;;;0.95;0.38;;;20.30;47.30;;;;;;6195220;28;20053;-72
2022/01/06 02:14:05;;;;;;;1.30;0.40;;;20.30;47.30;;;;;;6194301;28;20030;-72
2022/01/06 02:17:06;;;;;;;1.08;0.50;;;20.30;47.30;;;;;;6205356;28;20038;-73
2022/01/06 02:20:10;;;;;;;0.30;0.30;;;20.30;47.30;;;;;;6174026;28;20046;-72
2022/01/06 02:23:11;;;;;;;0.60;0.20;;;20.30;47.30;;;;;;6193978;28;20501;-72
2022/01/06 02:26:12;;;;;;;0.70;0.35;;;20.30;47.30;;;;;;6194880;28;20088;-73
2022/01/06 02:29:12;;;;;;;0.25;0.22;;;20.30;47.30;;;;;;6193968;28;20527;-72
2022/01/06 02:32:16;;;;;;;0.90;0.43;;;20.30;47.30;;;;;;6191311;28;20030;-72
2022/01/06 02:35:20;;;;;;;0.50;0.40;;;20.30;47.30;;;;;;6199343;28;20038;-72
2022/01/06 02:38:21;;;;;;;0.77;0.30;;;20.30;47.20;;;;;;6199280;28;20499;-72
2022/01/06 02:41:22;;;;;;;0.47;0.32;;;20.20;47.10;;;;;;6199358;28;20039;-72
2022/01/06 02:44:26;;;;;;;0.40;0.30;;;20.20;47.10;;;;;;6199281;28;20033;-72
2022/01/06 02:47:26;;;;;;;1.10;0.50;;;20.30;47.10;;;;;;6195707;28;20034;-72
2022/01/06 02:50:27;;;;;;;1.27;0.50;;;20.30;47.10;;;;;;6201196;28;20494;-72
2022/01/06 02:53:27;;;;;;;1.17;0.52;;;20.20;47.10;;;;;;6205534;28;20084;-73
2022/01/06 02:56:31;;;;;;;0.60;0.30;;;20.30;47.20;;;;;;6198900;28;20129;-72
2022/01/06 02:59:32;;;;;;;0.70;0.40;;;20.20;47.10;;;;;;6198722;28;20038;-72
2022/01/06 03:02:32;;;;;;;0.55;0.40;;;20.20;47.10;;;;;;6198627;28;20054;-72
2022/01/06 03:05:33;;;;;;;1.45;0.50;;;20.20;47.00;;;;;;6198597;28;20060;-72
2022/01/06 03:08:34;;;;;;;0.50;0.38;;;20.20;47.00;;;;;;6198342;28;20030;-72
2022/01/06 03:11:40;;;;;;;1.52;0.40;;;20.20;47.00;;;;;;6198588;28;20018;-72
2022/01/06 03:14:41;;;;;;;1.20;0.40;;;20.20;47.00;;;;;;6196727;28;20034;-73
2022/01/06 03:17:44;;;;;;;0.50;0.30;;;20.20;47.00;;;;;;6198145;28;20049;-72
2022/01/06 03:20:44;;;;;;;0.95;0.45;;;20.20;47.10;;;;;;6197990;28;20081;-72
2022/01/06 03:23:45;;;;;;;0.73;0.43;;;20.20;47.10;;;;;;6198111;28;20038;-72
2022/01/06 03:26:46;;;;;;;0.65;0.40;;;20.20;47.10;;;;;;6198119;28;20038;-72
2022/01/06 03:29:49;;;;;;;0.80;0.28;;;20.20;47.10;;;;;;6193203;28;20458;-73
2022/01/06 03:32:51;;;;;;;0.82;0.47;;;20.20;47.00;;;;;;6197755;28;20026;-72
2022/01/06 03:35:52;;;;;;;0.50;0.30;;;20.20;47.10;;;;;;6197848;28;20525;-72
2022/01/06 03:38:52;;;;;;;1.17;0.50;;;20.20;47.20;;;;;;6197614;28;20434;-73
2022/01/06 03:41:53;;;;;;;2.13;0.52;;;20.20;47.00;;;;;;6197304;28;20485;-72
2022/01/06 03:44:55;;;;;;;0.77;0.52;;;20.20;46.90;;;;;;6197615;28;20362;-72
2022/01/06 03:47:55;;;;;;;1.08;0.47;;;20.20;46.80;;;;;;6197690;28;20022;-72
2022/01/06 03:50:56;;;;;;;0.60;0.50;;;20.20;46.80;;;;;;6197847;28;20393;-73
2022/01/06 03:53:56;;;;;;;0.93;0.43;;;20.20;46.80;;;;;;6197889;28;20038;-72
2022/01/06 03:56:58;;;;;;;0.77;0.52;;;20.20;46.90;;;;;;6197216;28;20093;-72
2022/01/06 04:00:40;;;;;;;0.30;0.30;;;20.20;46.80;;;;;;6197540;28;20034;-72
2022/01/06 04:03:40;;;;;;;0.82;0.45;;;20.20;46.90;;;;;;6197696;28;20429;-72
2022/01/06 04:06:41;;;;;;;1.20;0.40;;;20.20;46.90;;;;;;6193729;28;20035;-72
2022/01/06 04:09:42;;;;;;;1.10;0.35;;;20.20;46.80;;;;;;6197413;28;20109;-72
2022/01/06 04:12:42;;;;;;;1.05;0.50;;;20.20;46.80;;;;;;6197207;28;20089;-72
2022/01/06 04:15:44;;;;;;;1.92;0.73;;;20.20;46.90;;;;;;6197020;28;20034;-72
2022/01/06 04:18:45;;;;;;;0.55;0.30;;;20.20;46.90;;;;;;6196618;28;20026;-73
2022/01/06 04:21:45;;;;;;;0.70;0.40;;;20.20;46.90;;;;;;6196919;28;20069;-72
2022/01/06 04:24:46;;;;;;;1.08;0.47;;;20.20;46.90;;;;;;6196885;28;20034;-72
2022/01/06 04:27:47;;;;;;;0.68;0.40;;;20.20;47.00;;;;;;6196936;28;20029;-72
2022/01/06 04:30:47;;;;;;;0.77;0.50;;;20.20;47.00;;;;;;6196597;28;20050;-72
2022/01/06 04:33:48;;;;;;;0.55;0.40;;;20.20;47.70;;;;;;6196544;28;20031;-72
2022/01/06 04:36:53;;;;;;;0.30;0.30;;;20.20;47.00;;;;;;6196314;28;20114;-72
2022/01/06 04:39:53;;;;;;;;;;;20.20;47.10;;;;;;6196633;28;20038;-72
2022/01/06 04:42:54;;;;;;;1.05;0.45;;;20.20;47.00;;;;;;6196687;28;20349;-72
2022/01/06 04:45:54;;;;;;;1.90;0.28;;;20.20;47.10;;;;;;6196262;28;20022;-72
2022/01/06 04:48:55;;;;;;;0.88;0.55;;;20.20;47.00;;;;;;6197149;28;20121;-72
2022/01/06 04:51:55;;;;;;;1.77;0.80;;;20.20;47.10;;;;;;6195945;28;20473;-72
2022/01/06 04:54:56;;;;;;;1.33;0.60;;;20.20;47.10;;;;;;6218886;28;20033;-72
2022/01/06 04:57:57;;;;;;;1.30;0.40;;;20.20;47.10;;;;;;6196746;28;20121;-73
2022/01/06 05:00:57;;;;;;;0.55;0.40;;;20.20;47.10;;;;;;6195812;28;20132;-72
2022/01/06 05:03:58;;;;;;;1.80;0.60;;;20.20;47.10;;;;;;6196033;28;20053;-72
2022/01/06 05:06:58;;;;;;;1.00;0.45;;;20.20;47.10;;;;;;6195557;28;20512;-72
2022/01/06 05:09:59;;;;;;;0.90;0.60;;;20.10;47.00;;;;;;6195687;28;20113;-72
2022/01/06 05:13:00;;;;;;;1.52;0.60;;;20.20;47.10;;;;;;6195794;28;20456;-72
2022/01/06 05:16:09;;;;;;;0.88;0.50;;;20.20;47.00;;;;;;6289836;28;20387;-65
2022/01/06 05:19:09;;;;;;;0.75;0.40;;;20.20;47.00;;;;;;6289918;28;20059;-66
2022/01/06 05:22:10;;;;;;;0.57;0.47;;;20.20;46.90;;;;;;6289737;28;20020;-64
2022/01/06 05:25:12;;;;;;;0.90;0.50;;;20.20;46.90;;;;;;6290099;28;20037;-65
2022/01/06 05:28:12;;;;;;;0.52;0.50;;;20.20;46.80;;;;;;6289270;28;20107;-67
2022/01/06 05:31:13;;;;;;;0.93;0.50;;;20.20;46.80;;;;;;6288212;28;20021;-65
2022/01/06 05:34:13;;;;;;;1.73;0.70;;;20.20;46.70;;;;;;6289430;28;20025;-65
2022/01/06 05:37:14;;;;;;;1.60;0.70;;;20.20;46.80;;;;;;6289701;28;20072;-64
2022/01/06 05:40:15;;;;;;;0.95;0.63;;;20.20;46.70;;;;;;6289459;28;20028;-64
2022/01/06 05:43:15;;;;;;;1.00;0.70;;;20.20;46.70;;;;;;6289321;28;20477;-64
2022/01/06 05:46:17;;;;;;;0.47;0.47;;;20.20;46.70;;;;;;6288098;28;20431;-65
2022/01/06 05:49:17;;;;;;;0.57;0.50;;;20.20;46.70;;;;;;6289167;28;20240;-65
2022/01/06 05:52:18;;;;;;;0.70;0.50;;;20.20;46.70;;;;;;6289041;28;20059;-65
2022/01/06 05:55:18;;;;;;;1.80;0.77;;;20.20;46.70;;;;;;6289263;28;20445;-65
2022/01/06 05:58:19;;;;;;;0.57;0.40;;;20.20;46.70;;;;;;6288825;28;20031;-65
2022/01/06 06:01:19;;;;;;;1.20;0.65;;;20.20;46.60;;;;;;6284105;28;20021;-64
2022/01/06 06:04:20;;;;;;;1.73;0.70;;;20.20;46.60;;;;;;6289135;28;20053;-66
2022/01/06 06:07:21;;;;;;;0.50;0.50;;;20.20;46.70;;;;;;6288700;28;20099;-64
2022/01/06 06:10:21;;;;;;;1.10;0.70;;;20.20;46.70;;;;;;6288919;28;20025;-65
2022/01/06 06:13:22;;;;;;;0.93;0.52;;;20.30;46.80;;;;;;6288759;28;20379;-65
2022/01/06 06:16:22;;;;;;;2.63;0.70;;;20.30;46.70;;;;;;6289300;28;20086;-65
2022/01/06 06:19:23;;;;;;;1.45;0.80;;;20.30;46.80;;;;;;6288275;28;20025;-65
2022/01/06 06:22:24;;;;;;;0.95;0.63;;;20.30;46.90;;;;;;6288264;28;20102;-65
2022/01/06 06:25:25;;;;;;;1.10;0.80;;;20.30;47.00;;;;;;6283651;28;20029;-65
2022/01/06 06:28:25;;;;;;;2.47;1.00;;;20.30;47.10;;;;;;6271904;28;20028;-65
2022/01/06 06:31:26;;;;;;;0.90;0.60;;;20.30;47.10;;;;;;6271380;28;20401;-65
2022/01/06 06:34:28;;;;;;;1.27;0.73;;;20.30;47.10;;;;;;6271666;28;20478;-74
2022/01/06 06:37:28;;;;;;;1.65;0.80;;;20.30;47.20;;;;;;6267093;28;20482;-66
2022/01/06 06:40:29;;;;;;;1.00;0.70;;;20.30;47.20;;;;;;6271863;28;20025;-66
2022/01/06 06:43:29;;;;;;;1.30;0.70;;;20.30;47.20;;;;;;6276154;28;20163;-66
2022/01/06 06:46:30;;;;;;;1.88;0.70;;;20.30;47.20;;;;;;6271733;28;20071;-66
2022/01/06 06:49:31;;;;;;;4.03;0.80;;;20.30;47.30;;;;;;6249865;28;20053;-66
2022/01/06 06:52:31;;;;;;;2.22;0.63;;;20.30;47.30;;;;;;6251769;28;20036;-67
2022/01/06 06:55:32;;;;;;;1.20;0.90;;;20.40;47.50;;;;;;6270541;28;20029;-66
2022/01/06 06:58:32;;;;;;;2.70;1.02;;;20.40;47.50;;;;;;6270833;28;20028;-66
2022/01/06 07:01:34;;;;;;;2.40;1.02;;;20.40;47.40;;;;;;6265212;28;20123;-66
2022/01/06 07:04:35;;;;;;;1.38;0.77;;;20.40;47.30;;;;;;6273260;28;20075;-66
2022/01/06 07:07:35;;;;;;;2.20;0.95;;;20.50;47.30;;;;;;6272453;28;20025;-66
2022/01/06 07:10:36;;;;;;;2.13;1.00;;;20.40;47.20;;;;;;6272496;28;20179;-67
2022/01/06 07:13:36;;;;;;;3.97;0.93;;;20.50;47.50;;;;;;6270938;28;20041;-67
2022/01/06 07:16:37;;;;;;;1.73;0.90;;;20.50;47.50;;;;;;6272243;28;20056;-65
2022/01/06 07:19:38;;;;;;;4.68;1.00;;;20.40;47.50;;;;;;6272331;28;20024;-67
2022/01/06 07:22:38;;;;;;;2.03;1.10;;;20.40;47.50;;;;;;6272271;28;20029;-66
2022/01/06 07:25:39;;;;;;;2.08;0.90;;;20.40;47.60;;;;;;6272565;28;20037;-66
2022/01/06 07:28:39;;;;;;;2.40;1.10;;;20.40;47.60;;;;;;6272193;28;20036;-67
2022/01/06 07:31:40;;;;;;;1.10;0.70;;;20.40;47.70;;;;;;6270808;28;20029;-68
2022/01/06 07:34:41;;;;;;;2.15;0.75;;;20.40;47.70;;;;;;6286478;28;20480;-66
2022/01/06 07:37:42;;;;;;;1.15;0.77;;;20.40;47.70;;;;;;6278728;28;20035;-67
2022/01/06 07:40:43;;;;;;;3.15;0.77;;;20.40;47.80;;;;;;6271839;28;20020;-70
2022/01/06 07:43:43;;;;;;;1.73;0.88;;;20.40;47.80;;;;;;6273109;28;20482;-69
2022/01/06 07:46:45;;;;;;;2.15;1.10;;;20.40;47.80;;;;;;6271474;28;20505;-70
2022/01/06 07:49:46;;;;;;;1.42;0.90;;;20.40;47.80;;;;;;6271359;28;20029;-69
2022/01/06 07:52:47;;;;;;;1.77;1.00;;;20.40;47.80;;;;;;6271383;28;20043;-70
2022/01/06 07:55:47;;;;;;;3.28;0.80;;;20.30;47.80;;;;;;6264972;28;20103;-69
2022/01/06 07:58:48;;;;;;;4.10;1.00;;;20.40;47.80;;;;;;6275104;28;20062;-70
2022/01/06 08:01:48;;;;;;;2.72;1.00;;;20.30;47.80;;;;;;6295950;28;20507;-70
2022/01/06 08:04:50;;;;;;;2.55;1.20;;;20.30;47.80;;;;;;6281794;28;20036;-69
2022/01/06 08:07:50;;;;;;;2.55;1.00;;;20.30;47.80;;;;;;6269111;28;20025;-70
2022/01/06 08:10:51;;;;;;;1.75;1.00;;;20.30;47.90;;;;;;6260361;28;20022;-71
2022/01/06 08:13:51;;;;;;;2.05;1.30;;;20.30;47.90;;;;;;6247905;28;20045;-71
2022/01/06 08:16:52;;;;;;;1.77;1.00;;;20.40;48.00;;;;;;6262159;28;20028;-70
2022/01/06 08:19:53;;;;;;;4.80;1.27;;;20.30;47.90;;;;;;6270460;28;20032;-69
2022/01/06 08:22:53;;;;;;;9.05;1.63;;;20.30;48.10;;;;;;6270255;28;20506;-69
2022/01/06 08:25:55;;;;;;;8.57;1.30;;;20.20;47.30;;;;;;6269182;28;20041;-69
2022/01/06 08:28:56;;;;;;;7.93;1.50;;;20.20;46.50;;;;;;6269827;28;20071;-69
2022/01/06 08:31:56;;;;;;;3.97;1.55;;;20.20;45.80;;;;;;6269763;28;20025;-69
2022/01/06 08:34:57;;;;;;;7.88;1.83;;;20.30;46.00;;;;;;6270335;28;20482;-69
2022/01/06 08:37:58;;;;;;;2.50;1.30;;;20.30;46.30;;;;;;6268276;28;20017;-69
2022/01/06 08:40:58;;;;;;;2.33;1.10;;;20.30;46.40;;;;;;6270145;28;20390;-69
2022/01/06 08:43:59;;;;;;;7.18;1.67;;;20.30;46.70;;;;;;6290396;28;20039;-69
2022/01/06 08:47:01;;;;;;;3.35;1.27;;;20.30;46.80;;;;;;6269846;28;20029;-69
2022/01/06 08:50:01;;;;;;;2.63;1.13;;;20.30;46.90;;;;;;6279363;28;20021;-69
2022/01/06 08:53:02;;;;;;;1.85;1.00;;;20.30;47.10;;;;;;6270127;28;20036;-69
2022/01/06 08:56:03;;;;;;;2.95;1.40;;;20.30;47.20;;;;;;6274022;28;20035;-69
2022/01/06 08:59:04;;;;;;;2.65;1.48;;;20.30;47.20;;;;;;6293310;28;20100;-70
2022/01/06 09:02:05;;;;;;;1.88;1.13;;;20.30;47.30;;;;;;6252401;28;20034;-70
2022/01/06 09:05:06;;;;;;;3.10;1.27;;;20.30;47.30;;;;;;6257457;28;20024;-69
2022/01/06 09:08:09;;;;;;;3.20;1.15;;;20.30;47.30;;;;;;6269735;28;20406;-69
2022/01/06 09:11:09;;;;;;;2.22;1.10;;;20.30;47.40;;;;;;6258801;28;20116;-69
2022/01/06 09:14:10;;;;;;;3.05;1.05;;;20.30;47.40;;;;;;6245212;28;20068;-69
2022/01/06 09:17:11;;;;;;;2.40;1.20;;;20.30;47.40;;;;;;6268853;28;20498;-69
2022/01/06 09:20:12;;;;;;;2.42;1.30;;;20.30;47.40;;;;;;6269582;28;20490;-69
2022/01/06 09:23:13;;;;;;;4.75;1.38;;;20.30;47.50;;;;;;6269425;28;20021;-69
2022/01/06 09:26:13;;;;;;;4.20;1.25;;;20.30;47.50;;;;;;6269763;28;20395;-70
2022/01/06 09:29:14;;;;;;;2.42;1.30;;;20.30;47.50;;;;;;6267709;28;20036;-69
2022/01/06 09:32:14;;;;;;;2.45;1.38;;;20.30;47.60;;;;;;6268364;28;20025;-69
2022/01/06 09:35:15;;;;;;;3.78;1.27;;;20.30;47.60;;;;;;6269392;28;20029;-70
2022/01/06 09:38:16;;;;;;;3.70;1.17;;;20.30;47.80;;;;;;6268998;28;20495;-70
2022/01/06 09:41:17;;;;;;;3.63;1.30;;;20.30;47.60;;;;;;6267925;28;20028;-70
2022/01/06 09:44:19;;;;;;;2.35;1.15;;;20.30;47.70;;;;;;6261913;28;20075;-69
2022/01/06 09:47:21;;;;;;;1.70;1.17;;;20.30;47.60;;;;;;6269770;28;20400;-69
2022/01/06 09:50:21;;;;;;;2.20;1.17;;;20.30;47.70;;;;;;6269322;28;20033;-71
2022/01/06 09:53:24;;;;;;;5.18;1.27;;;20.30;47.70;;;;;;6269404;28;20029;-70
2022/01/06 09:56:27;;;;;;;2.40;1.05;;;20.30;47.80;;;;;;6268965;28;20543;-69
2022/01/06 09:59:28;;;;;;;1.88;1.10;;;20.30;47.80;;;;;;6269072;28;20113;-70
2022/01/06 10:02:39;;;;;;;2.03;1.00;;;20.30;47.80;;;;;;6273152;28;20359;-70
2022/01/06 10:05:42;;;;;;;2.30;1.08;;;20.30;47.80;;;;;;6274039;28;20055;-69
2022/01/06 10:08:59;;;;;;;1.63;1.00;;;20.30;48.60;;;;;;6273398;28;20101;-71
2022/01/06 10:12:03;;;;;;;2.25;1.23;;;20.30;47.90;;;;;;6271281;28;20032;-69
2022/01/06 10:15:18;;;;;;;2.33;1.10;;;20.30;47.90;;;;;;6273333;28;20052;-69
2022/01/06 10:18:19;;;;;;;2.03;1.30;;;20.30;48.00;;;;;;6264590;28;20082;-69
2022/01/06 10:21:19;;;;;;;2.47;1.17;;;20.30;48.00;;;;;;6289422;28;20021;-69
2022/01/06 10:24:22;;;;;;;3.13;1.00;;;20.30;48.00;;;;;;6272245;28;20104;-69
2022/01/06 10:27:24;;;;;;;2.45;1.50;;;20.30;48.10;;;;;;6271925;28;20074;-67
2022/01/06 10:30:29;;;;;;;5.32;1.52;;;20.20;48.20;;;;;;6278556;28;20099;-68
2022/01/06 10:33:41;;;;;;;4.20;1.58;;;20.20;46.40;;;;;;6273317;28;20094;-67
2022/01/06 10:36:41;;;;;;;4.85;1.38;;;20.20;45.30;;;;;;6273399;28;20032;-70
2022/01/06 10:39:43;;;;;;;3.83;1.90;;;20.20;46.00;;;;;;6272324;28;20025;-68
2022/01/06 10:42:49;;;;;;;9.10;1.83;;;20.20;45.50;;;;;;6272059;28;20060;-67
2022/01/06 10:46:01;;;;;;;4.70;1.85;;;20.10;44.90;;;;;;6273280;28;20017;-67
2022/01/06 10:49:05;;;;;;;5.32;1.38;;;20.10;45.50;;;;;;6273201;28;20389;-68
2022/01/06 10:52:06;;;;;;;4.47;1.52;;;20.10;44.40;;;;;;6273347;28;20048;-68
2022/01/06 10:55:12;;;;;;;4.88;1.55;;;20.10;43.50;;;;;;6272712;28;20104;-70
2022/01/06 10:58:22;;;;;;;3.17;1.48;;;20.10;44.10;;;;;;6271320;28;20024;-70
2022/01/06 11:01:22;;;;;;;4.85;1.63;;;20.00;44.10;;;;;;6272691;28;20021;-70
2022/01/06 11:04:23;;;;;;;3.72;1.63;;;20.00;42.70;;;;;;6271768;28;20078;-71
2022/01/06 11:07:24;;;;;;;3.42;1.40;;;20.00;44.10;;;;;;6271404;28;20033;-69
2022/01/06 11:10:24;;;;;;;5.72;1.60;;;20.00;43.90;;;;;;6271475;28;20448;-69
2022/01/06 11:13:25;;;;;;;8.68;1.77;;;20.00;42.10;;;;;;6271254;28;20029;-71
2022/01/06 11:16:26;;;;;;;6.38;1.70;;;20.00;41.90;;;;;;6275901;28;20024;-69
2022/01/06 11:19:28;;;;;;;5.53;1.85;;;20.00;41.80;;;;;;6271679;28;20478;-69
2022/01/06 11:22:29;;;;;;;4.75;1.45;;;20.00;40.80;;;;;;6270982;28;20505;-70
2022/01/06 11:25:34;;;;;;;4.78;1.30;;;20.00;40.00;;;;;;6270185;28;20025;-70
2022/01/06 11:28:35;;;;;;;5.38;1.73;;;20.10;40.20;;;;;;6271267;28;20095;-69
2022/01/06 11:31:42;;;;;;;4.63;1.13;;;20.10;40.70;;;;;;6270518;28;20390;-70
2022/01/06 11:34:42;;;;;;;4.47;1.52;;;20.10;41.00;;;;;;6270549;28;20116;-69
2022/01/06 11:37:50;;;;;;;4.55;1.25;;;20.10;41.40;;;;;;6270245;28;20387;-69
2022/01/06 11:40:52;;;;;;;4.28;1.45;;;20.10;41.90;;;;;;6270108;28;20493;-69
2022/01/06 11:43:57;;;;;;;5.30;1.38;;;20.10;42.00;;;;;;6270726;28;20036;-70
2022/01/06 11:46:59;;;;;;;;;;;20.10;42.40;;;;;;6275123;28;20534;-70
2022/01/06 11:50:09;;;;;;;4.07;1.35;;;20.10;42.60;;;;;;6270295;28;19978;-70
2022/01/06 11:53:10;;;;;;;5.47;1.30;;;20.10;42.90;;;;;;6269089;28;20507;-70
2022/01/06 11:56:14;;;;;;;5.63;1.35;;;20.10;43.00;;;;;;6270562;28;20021;-70
2022/01/06 11:59:15;;;;;;;2.97;1.15;;;20.10;43.20;;;;;;6268982;28;20032;-69
2022/01/06 12:02:20;;;;;;;3.33;1.33;;;20.10;43.40;;;;;;6269742;28;20029;-69
2022/01/06 12:05:21;;;;;;;4.57;1.40;;;20.20;43.60;;;;;;6269933;28;20557;-70
2022/01/06 12:08:39;;;;;;;3.90;1.48;;;20.20;43.70;;;;;;6269571;28;20418;-69
2022/01/06 12:11:40;;;;;;;2.10;1.00;;;20.20;43.90;;;;;;6274941;28;20032;-69
2022/01/06 12:14:41;;;;;;;1.63;1.17;;;20.20;44.00;;;;;;6272591;28;20509;-70
2022/01/06 12:17:52;;;;;;;3.63;1.40;;;20.20;44.10;;;;;;6269265;28;20068;-69
2022/01/06 12:20:54;;;;;;;3.38;1.00;;;20.20;44.20;;;;;;6270129;28;20545;-70
2022/01/06 12:24:04;;;;;;;4.55;1.20;;;20.20;44.50;;;;;;6278645;28;20442;-69
2022/01/06 12:27:05;;;;;;;6.50;1.20;;;20.20;44.70;;;;;;6293390;28;20032;-70
2022/01/06 12:30:06;;;;;;;18.90;2.00;;;20.20;44.60;;;;;;6272050;28;20446;-70
2022/01/06 12:33:07;;;;;;;4.05;1.35;;;20.20;45.10;;;;;;6269214;28;20032;-70
2022/01/06 12:36:08;;;;;;;115.95;5.07;;;20.30;45.60;;;;;;6276094;28;20024;-71
2022/01/06 12:39:19;;;;;;;73.40;3.78;;;20.40;45.90;;;;;;6280008;28;20024;-72
2022/01/06 12:42:19;;;;;;;66.20;4.45;;;20.40;45.80;;;;;;6254224;28;20143;-69
2022/01/06 12:45:23;;;;;;;44.28;3.47;;;20.50;46.00;;;;;;6269323;28;20025;-70
2022/01/06 12:48:31;;;;;;;43.35;2.97;;;20.50;46.10;;;;;;6268230;28;20017;-69
2022/01/06 12:51:33;;;;;;;37.72;2.90;;;20.40;46.00;;;;;;6251123;28;20036;-69
2022/01/06 12:54:36;;;;;;;27.70;3.05;;;20.40;46.10;;;;;;6259295;28;20033;-69
2022/01/06 12:57:38;;;;;;;19.70;2.08;;;20.40;46.10;;;;;;6269006;28;20086;-70
2022/01/06 13:00:38;;;;;;;29.58;2.35;;;20.30;46.40;;;;;;6268954;28;20021;-70
2022/01/06 13:03:41;;;;;;;18.98;2.30;;;20.40;46.50;;;;;;6269224;28;20063;-70
2022/01/06 13:06:42;;;;;;;18.25;2.30;;;20.40;46.40;;;;;;6268902;28;20024;-69
2022/01/06 13:09:43;;;;;;;20.48;1.88;;;20.40;46.80;;;;;;6269034;28;20044;-69
2022/01/06 13:12:44;;;;;;;14.32;2.25;;;20.40;47.10;;;;;;6268175;28;20510;-71
2022/01/06 13:15:44;;;;;;;20.95;2.17;;;20.40;46.90;;;;;;6268842;28;20045;-72
2022/01/06 13:18:58;;;;;;;11.85;1.65;;;20.40;46.80;;;;;;6272550;28;20025;-69
2022/01/06 13:22:03;;;;;;;20.25;2.00;;;20.30;46.80;;;;;;6269475;28;20053;-69
2022/01/06 13:25:11;;;;;;;20.58;2.00;;;20.40;47.20;;;;;;6266814;28;20486;-69
2022/01/06 13:28:16;;;;;;;15.20;2.15;;;20.40;47.20;;;;;;6267805;28;20036;-69
2022/01/06 13:31:18;;;;;;;16.58;1.92;;;20.30;47.50;;;;;;6268547;28;20032;-69
2022/01/06 13:34:19;;;;;;;7.97;1.60;;;20.30;47.10;;;;;;6268914;28;20509;-69
2022/01/06 13:37:20;;;;;;;14.95;1.98;;;20.30;47.30;;;;;;6272099;28;20481;-70
2022/01/06 13:40:21;;;;;;;9.07;1.58;;;20.30;47.80;;;;;;6283071;28;20076;-70
2022/01/06 13:43:24;;;;;;;22.42;1.70;;;20.30;47.70;;;;;;6296015;28;20036;-69
2022/01/06 13:46:39;;;;;;;8.57;1.52;;;20.30;47.70;;;;;;6273655;28;20469;-69
2022/01/06 13:53:00;;;;;;;7.18;1.42;;;20.30;48.00;;;;;;6273749;28;20025;-69
2022/01/06 13:56:16;;;;;;;6.03;1.55;;;20.30;47.90;;;;;;6271977;28;20036;-69
2022/01/06 13:59:16;;;;;;;6.53;1.48;;;20.30;47.90;;;;;;6271159;28;20039;-69
2022/01/06 14:02:18;;;;;;;4.55;1.30;;;20.30;48.10;;;;;;6267034;28;20487;-69
2022/01/06 14:05:20;;;;;;;7.85;2.17;;;20.30;48.10;;;;;;6260495;28;20348;-71
2022/01/06 14:08:20;;;;;;;4.90;1.55;;;20.30;48.20;;;;;;6271857;28;20038;-71
2022/01/06 14:11:21;;;;;;;4.60;1.40;;;20.30;48.00;;;;;;6260903;28;20033;-70
2022/01/06 14:14:22;;;;;;;5.35;1.50;;;20.30;48.00;;;;;;6252281;28;20073;-71
2022/01/06 14:17:22;;;;;;;9.35;1.30;;;20.30;47.80;;;;;;6290970;28;20025;-69
2022/01/06 14:20:23;;;;;;;3.72;1.42;;;20.30;47.80;;;;;;6272810;28;20385;-71
2022/01/06 14:23:27;;;;;;;5.40;1.25;;;20.30;47.80;;;;;;6272819;28;20021;-70
2022/01/06 14:26:28;;;;;;;16.90;1.37;;;20.30;47.80;;;;;;6272754;28;20021;-69
2022/01/06 14:29:30;;;;;;;6.30;1.00;;;20.30;47.80;;;;;;6272042;28;20267;-71
2022/01/06 14:32:32;;;;;;;5.85;1.10;;;20.30;47.80;;;;;;6284560;28;20162;-68
2022/01/06 14:35:36;;;;;;;7.78;1.27;;;20.30;47.80;;;;;;6278655;28;20382;-67
2022/01/06 14:38:41;;;;;;;4.88;1.80;;;20.30;47.80;;;;;;6273766;28;20061;-67
2022/01/06 14:41:43;;;;;;;5.70;1.10;;;20.30;47.80;;;;;;6276322;28;20423;-67
2022/01/06 14:44:47;;;;;;;7.88;1.70;;;20.30;47.80;;;;;;6295871;28;20038;-67
2022/01/06 14:47:54;;;;;;;5.87;1.17;;;20.30;48.50;;;;;;6272866;28;20104;-67
2022/01/06 14:50:54;;;;;;;5.82;1.30;;;20.20;47.70;;;;;;6272088;28;20433;-70
2022/01/06 14:53:56;;;;;;;5.55;1.17;;;20.30;47.80;;;;;;6251650;28;20080;-70
2022/01/06 14:56:56;;;;;;;4.40;1.40;;;20.30;47.80;;;;;;6265622;28;20017;-70
2022/01/06 14:59:57;;;;;;;5.13;1.48;;;20.30;47.80;;;;;;6273430;28;20040;-71
2022/01/06 15:03:00;;;;;;;3.60;1.23;;;20.30;47.80;;;;;;6272899;28;20029;-68
2022/01/06 15:06:01;;;;;;;2.63;1.20;;;20.20;47.70;;;;;;6276372;28;20104;-66
2022/01/06 15:09:07;;;;;;;3.53;1.40;;;20.20;47.60;;;;;;6296978;28;20116;-67
2022/01/06 15:12:15;;;;;;;6.80;1.83;;;20.20;47.10;;;;;;6271837;28;20036;-68
2022/01/06 15:15:16;;;;;;;6.00;1.23;;;20.20;47.50;;;;;;6271532;28;20525;-68
2022/01/06 15:18:17;;;;;;;3.22;1.42;;;20.30;47.00;;;;;;6273289;28;20055;-69
2022/01/06 15:21:17;;;;;;;4.68;1.50;;;20.30;47.10;;;;;;6279389;28;20104;-71
2022/01/06 15:24:18;;;;;;;16.63;1.58;;;20.30;47.30;;;;;;6278057;28;20120;-67
2022/01/06 15:27:18;;;;;;;7.45;1.52;;;20.20;46.90;;;;;;6263477;28;20029;-67
2022/01/06 15:30:20;;;;;;;6.10;2.15;;;20.20;45.40;;;;;;6270905;28;20116;-67
2022/01/06 15:33:20;;;;;;;8.15;2.05;;;20.20;43.80;;;;;;6270586;28;20500;-68
2022/01/06 15:36:21;;;;;;;10.13;1.80;;;20.20;43.90;;;;;;6270793;28;20025;-67
2022/01/06 15:39:21;;;;;;;6.72;1.92;;;20.20;44.60;;;;;;6270951;28;20028;-67
2022/01/06 15:42:22;;;;;;;4.90;1.80;;;20.20;45.20;;;;;;6271452;28;20394;-68
2022/01/06 15:45:23;;;;;;;6.68;2.10;;;20.20;45.70;;;;;;6270939;28;20033;-68
2022/01/06 15:48:23;;;;;;;12.85;3.28;;;20.20;45.90;;;;;;6269155;28;20037;-67
2022/01/06 15:51:25;;;;;;;61.03;6.45;;;20.10;46.10;;;;;;6269636;28;20409;-67
2022/01/06 15:54:26;;;;;;;107.13;8.88;;;20.10;45.70;;;;;;6252020;28;20479;-67